Worthington, MN

6:34 PM CDT on July 28, 2016 (GMT -0500)
Worthington | | Change Station

Elev 1587 ft 43.56 °N, 95.57 °W | Updated 1 second ago

Partly Cloudy
Partly Cloudy
72.3 °F
Feels Like 75 °F
N
5.1
Wind Variable Wind from NE
Gusts 11.0 mph

Today
High -- | Low -- °F
--% Chance of Precip.
Yesterday
High -- | Low -- °F
Precip. -- in
Pressure 30.04 in
Visibility 10.0 miles
Clouds Few 6000 ft
Heat Index 75 °F
Dew Point 61 °F
Humidity 69%
Rainfall 0.00 in
Snow Depth Not available.
6:07 AM 8:49 PM
Waning Crescent, 28% visible
METAR KOTG 282256Z AUTO 01011KT 10SM FEW060 23/16 A3004 RMK AO2 SLP171 T02330156
Pressure 30.04 in
Visibility 10.0 miles
Clouds Few 6000 ft
Heat Index 75 °F
Dew Point 61 °F
Humidity 69%
Rainfall 0.00 in
Snow Depth Not available.
6:07 AM 8:49 PM
Waning Crescent, 28% visible
METAR KOTG 282256Z AUTO 01011KT 10SM FEW060 23/16 A3004 RMK AO2 SLP171 T02330156

10-Day Weather Forecast

Almanac

Astronomy

Jul. 28, 2016 Rise Set
Actual Time
Civil Twilight
Nautical Twilight
Astronomical Twilight
Moon
Length of Visible Light
Length of Day
Tomorrow will be .
, % of the Moon is Illuminated

Today's Extremes

State Highs State Lows

Community

WunderPhotos

Upload Photos

1,928,228 photos uploaded!

WunderBlog® & News

Nearby

Air Quality

  Air Quality AQ Index Pollutant
Not available.

Snow Depth

Station Depth Elevation

Earthquake Activity

City Distance Mag. Time & Date
Minimum magnitude displayed is 2.5.

Coastal Water Temperatures

Place Temperature

Stations

Nearby Weather Stations

Station Location Temp. Windchill Dew Point Humidity Wind Precip. Elev Updated Type
                   

Watches & Warnings

There are currently no watches in effect.